Time;durP1;ratioP1;P1;durP2;ratioP2;P2;SDS_P1;SDS_P2;PMS_P1;PMS_P2;Temp;Humidity;BMP_temperature;BMP_pressure;BME280_temperature;BME280_humidity;BME280_pressure;Samples;Min_cycle;Max_cycle;Signal;HPM_P1;HPM_P2
2023/05/03 00:00:28;;;;;;;0.10;0.10;;;;;;;;;;5095318;28;20207;-75
2023/05/03 00:02:56;;;;;;;0.10;0.10;;;;;;;;;;5117371;28;20424;-75
2023/05/03 00:05:22;;;;;;;0.10;0.10;;;;;;;;;;5094924;28;20201;-75
2023/05/03 00:07:49;;;;;;;0.10;0.10;;;;;;;;;;5117514;28;20269;-75
2023/05/03 00:10:16;;;;;;;0.10;0.10;;;;;;;;;;5094404;28;20231;-75
2023/05/03 00:12:44;;;;;;;0.10;0.10;;;;;;;;;;5118019;28;20313;-75
2023/05/03 00:15:10;;;;;;;0.10;0.10;;;;;;;;;;5098869;28;20274;-75
2023/05/03 00:17:37;;;;;;;0.10;0.10;;;;;;;;;;5123233;28;20297;-75
2023/05/03 00:20:04;;;;;;;0.10;0.10;;;;;;;;;;5107388;28;20274;-75
2023/05/03 00:22:31;;;;;;;0.10;0.10;;;;;;;;;;5112876;28;20469;-75
2023/05/03 00:24:58;;;;;;;0.10;0.10;;;;;;;;;;5107596;28;20209;-75
2023/05/03 00:27:25;;;;;;;0.10;0.10;;;;;;;;;;5112744;28;20292;-75
2023/05/03 00:29:52;;;;;;;0.10;0.10;;;;;;;;;;5107429;28;20210;-75
2023/05/03 00:32:20;;;;;;;0.30;0.30;;;;;;;;;;5112746;28;20238;-75
2023/05/03 00:34:46;;;;;;;0.10;0.10;;;;;;;;;;5107275;28;20452;-75
2023/05/03 00:37:12;;;;;;;0.10;0.10;;;;;;;;;;5112406;28;20578;-75
2023/05/03 00:39:42;;;;;;;0.10;0.10;;;;;;;;;;5107205;28;20220;-75
2023/05/03 00:42:08;;;;;;;0.10;0.10;;;;;;;;;;5112082;28;20482;-75
2023/05/03 00:44:34;;;;;;;0.20;0.20;;;;;;;;;;5107442;28;20210;-75
2023/05/03 00:47:03;;;;;;;0.10;0.10;;;;;;;;;;5111406;28;20241;-75
2023/05/03 00:49:29;;;;;;;0.10;0.10;;;;;;;;;;5107450;28;20271;-75
2023/05/03 00:51:58;;;;;;;0.10;0.10;;;;;;;;;;5110639;28;20420;-75
2023/05/03 00:54:24;;;;;;;0.10;0.10;;;;;;;;;;5108262;28;20469;-75
2023/05/03 00:56:51;;;;;;;0.10;0.10;;;;;;;;;;5109865;28;20301;-75
2023/05/03 00:59:18;;;;;;;0.10;0.10;;;;;;;;;;5108738;28;20203;-75
2023/05/03 01:01:47;;;;;;;0.10;0.10;;;;;;;;;;5108687;28;20554;-74
2023/05/03 01:04:15;;;;;;;0.10;0.10;;;;;;;;;;5109433;28;20431;-75
2023/05/03 01:06:45;;;;;;;0.10;0.10;;;;;;;;;;5108566;28;20292;-75
2023/05/03 01:09:15;;;;;;;0.10;0.10;;;;;;;;;;5109361;28;20202;-75
2023/05/03 01:11:46;;;;;;;0.57;0.57;;;;;;;;;;5108520;28;20286;-75
2023/05/03 01:14:17;;;;;;;0.10;0.10;;;;;;;;;;5109610;28;20203;-75
2023/05/03 01:16:48;;;;;;;0.10;0.10;;;;;;;;;;5108308;28;20252;-75
2023/05/03 01:19:20;;;;;;;0.10;0.10;;;;;;;;;;5108776;28;20191;-75
2023/05/03 01:21:49;;;;;;;0.10;0.10;;;;;;;;;;5108797;28;20238;-75
2023/05/03 01:24:18;;;;;;;0.10;0.10;;;;;;;;;;5108857;28;20379;-75
2023/05/03 01:26:45;;;;;;;0.10;0.10;;;;;;;;;;5107901;28;20234;-75
2023/05/03 01:29:12;;;;;;;0.10;0.10;;;;;;;;;;5108971;28;20230;-75
2023/05/03 01:31:40;;;;;;;0.17;0.17;;;;;;;;;;5107436;28;20254;-75
2023/05/03 01:34:14;;;;;;;0.10;0.10;;;;;;;;;;5109601;28;20270;-75
2023/05/03 01:36:42;;;;;;;0.10;0.10;;;;;;;;;;5107532;28;20252;-75
2023/05/03 01:39:10;;;;;;;0.10;0.10;;;;;;;;;;5109522;28;20384;-75
2023/05/03 01:41:37;;;;;;;0.20;0.20;;;;;;;;;;5107237;28;20238;-74
2023/05/03 01:44:05;;;;;;;0.10;0.10;;;;;;;;;;5109608;28;20237;-75
2023/05/03 01:46:32;;;;;;;0.10;0.10;;;;;;;;;;5106584;28;20464;-75
2023/05/03 01:48:58;;;;;;;0.10;0.10;;;;;;;;;;5110255;28;20269;-74
2023/05/03 01:51:24;;;;;;;0.10;0.10;;;;;;;;;;5105452;28;20269;-75
2023/05/03 01:53:51;;;;;;;0.10;0.10;;;;;;;;;;5111503;28;20454;-75
2023/05/03 01:56:17;;;;;;;0.10;0.10;;;;;;;;;;5104477;28;20237;-75
2023/05/03 01:58:43;;;;;;;0.10;0.10;;;;;;;;;;5111924;28;20225;-75
2023/05/03 02:01:11;;;;;;;0.10;0.10;;;;;;;;;;5103455;28;20259;-75
2023/05/03 02:03:37;;;;;;;0.10;0.10;;;;;;;;;;5112819;28;20234;-75
2023/05/03 02:06:04;;;;;;;0.10;0.10;;;;;;;;;;5102647;28;20561;-75
2023/05/03 02:08:30;;;;;;;0.10;0.10;;;;;;;;;;5113770;28;20449;-75
2023/05/03 02:10:57;;;;;;;0.20;0.20;;;;;;;;;;5101637;28;20300;-75
2023/05/03 02:13:23;;;;;;;0.10;0.10;;;;;;;;;;5114710;28;20234;-75
2023/05/03 02:15:50;;;;;;;0.10;0.10;;;;;;;;;;5100614;28;20498;-75
2023/05/03 02:18:19;;;;;;;0.10;0.10;;;;;;;;;;5115406;28;20455;-75
2023/05/03 02:20:46;;;;;;;0.10;0.10;;;;;;;;;;5099842;28;20570;-75
2023/05/03 02:23:12;;;;;;;0.10;0.10;;;;;;;;;;5115910;28;20239;-75
2023/05/03 02:25:38;;;;;;;0.10;0.10;;;;;;;;;;5098821;28;20258;-75
2023/05/03 02:28:05;;;;;;;0.10;0.10;;;;;;;;;;5116850;28;20228;-75
2023/05/03 02:30:31;;;;;;;0.20;0.20;;;;;;;;;;5097849;28;20447;-75
2023/05/03 02:32:58;;;;;;;0.10;0.10;;;;;;;;;;5117629;28;20227;-75
2023/05/03 02:35:26;;;;;;;0.10;0.10;;;;;;;;;;5096624;28;20210;-75
2023/05/03 02:37:52;;;;;;;0.23;0.23;;;;;;;;;;5117665;28;20593;-75
2023/05/03 02:40:18;;;;;;;0.10;0.10;;;;;;;;;;5095389;28;20435;-75
2023/05/03 02:42:45;;;;;;;0.10;0.10;;;;;;;;;;5119255;28;20443;-75
2023/05/03 02:45:11;;;;;;;0.20;0.20;;;;;;;;;;5094881;28;20197;-75
2023/05/03 02:47:38;;;;;;;0.10;0.10;;;;;;;;;;5119697;28;20225;-75
2023/05/03 02:50:05;;;;;;;0.10;0.10;;;;;;;;;;5104554;28;20210;-74
2023/05/03 02:52:32;;;;;;;0.20;0.20;;;;;;;;;;5092989;28;20214;-75
2023/05/03 02:54:59;;;;;;;0.10;0.10;;;;;;;;;;5104348;28;20281;-75
2023/05/03 02:57:25;;;;;;;0.10;0.10;;;;;;;;;;5109706;28;20308;-75
2023/05/03 02:59:51;;;;;;;0.10;0.10;;;;;;;;;;5104359;28;20199;-75
2023/05/03 03:02:18;;;;;;;0.20;0.20;;;;;;;;;;5109852;28;20488;-74
2023/05/03 03:04:44;;;;;;;0.10;0.10;;;;;;;;;;5104241;28;20265;-74
2023/05/03 03:07:11;;;;;;;0.10;0.10;;;;;;;;;;5109782;28;20233;-75
2023/05/03 03:09:38;;;;;;;0.10;0.10;;;;;;;;;;5104369;28;20206;-74
2023/05/03 03:12:05;;;;;;;0.10;0.10;;;;;;;;;;5109286;28;20305;-75
2023/05/03 03:14:31;;;;;;;0.10;0.10;;;;;;;;;;5104182;28;20213;-74
2023/05/03 03:16:58;;;;;;;0.10;0.10;;;;;;;;;;5108268;28;20241;-75
2023/05/03 03:19:24;;;;;;;0.17;0.17;;;;;;;;;;5105117;28;20210;-75
2023/05/03 03:21:50;;;;;;;0.10;0.10;;;;;;;;;;5107070;28;20254;-75
2023/05/03 03:24:17;;;;;;;0.20;0.20;;;;;;;;;;5106096;28;20223;-75
2023/05/03 03:26:44;;;;;;;0.10;0.10;;;;;;;;;;5106144;28;20240;-75
2023/05/03 03:29:11;;;;;;;0.10;0.10;;;;;;;;;;5107227;28;20457;-75
2023/05/03 03:31:37;;;;;;;0.10;0.10;;;;;;;;;;5105215;28;20240;-75
2023/05/03 03:34:04;;;;;;;0.10;0.10;;;;;;;;;;5108133;28;20203;-75
2023/05/03 03:36:30;;;;;;;0.20;0.20;;;;;;;;;;5103923;28;20243;-75
2023/05/03 03:38:56;;;;;;;0.20;0.20;;;;;;;;;;5108885;28;20217;-75
2023/05/03 03:41:23;;;;;;;0.10;0.10;;;;;;;;;;5103312;28;20265;-75
2023/05/03 03:43:50;;;;;;;0.10;0.10;;;;;;;;;;5109802;28;20203;-75
2023/05/03 03:46:17;;;;;;;0.30;0.30;;;;;;;;;;5102482;28;20282;-75
2023/05/03 03:48:43;;;;;;;0.10;0.10;;;;;;;;;;5110431;28;20268;-74
2023/05/03 03:51:10;;;;;;;0.10;0.10;;;;;;;;;;5101293;28;20313;-75
2023/05/03 03:53:36;;;;;;;0.10;0.10;;;;;;;;;;5111399;28;20409;-75
2023/05/03 03:56:02;;;;;;;0.10;0.10;;;;;;;;;;5100625;28;20478;-75
2023/05/03 03:58:29;;;;;;;0.10;0.10;;;;;;;;;;5111853;28;20424;-75
2023/05/03 04:00:57;;;;;;;0.20;0.20;;;;;;;;;;5099042;28;20299;-75
2023/05/03 04:03:23;;;;;;;0.10;0.10;;;;;;;;;;5113368;28;20477;-75
2023/05/03 04:05:50;;;;;;;0.10;0.10;;;;;;;;;;5098179;28;20313;-75
2023/05/03 04:08:16;;;;;;;0.10;0.10;;;;;;;;;;5114404;28;20522;-75
2023/05/03 04:10:43;;;;;;;0.10;0.10;;;;;;;;;;5097753;28;20508;-74
2023/05/03 04:13:09;;;;;;;0.10;0.10;;;;;;;;;;5114837;28;20240;-74
2023/05/03 04:15:35;;;;;;;0.20;0.20;;;;;;;;;;5096716;28;20290;-75
2023/05/03 04:18:04;;;;;;;0.10;0.10;;;;;;;;;;5115626;28;20482;-75
2023/05/03 04:20:31;;;;;;;0.13;0.13;;;;;;;;;;5095887;28;20250;-75
2023/05/03 04:22:57;;;;;;;0.10;0.10;;;;;;;;;;5115949;28;20200;-75
2023/05/03 04:25:24;;;;;;;0.17;0.17;;;;;;;;;;5094993;28;20275;-75
2023/05/03 04:27:51;;;;;;;0.10;0.10;;;;;;;;;;5116931;28;20259;-75
2023/05/03 04:30:18;;;;;;;0.10;0.10;;;;;;;;;;5094438;28;20206;-75
2023/05/03 04:32:46;;;;;;;0.10;0.10;;;;;;;;;;5117741;28;20213;-75
2023/05/03 04:35:14;;;;;;;0.10;0.10;;;;;;;;;;5093588;28;20210;-75
2023/05/03 04:37:40;;;;;;;0.10;0.10;;;;;;;;;;5118240;28;20562;-75
2023/05/03 04:40:08;;;;;;;0.40;0.40;;;;;;;;;;5103245;28;20202;-75
2023/05/03 04:42:35;;;;;;;0.67;0.67;;;;;;;;;;5091535;28;20297;-75
2023/05/03 04:45:01;;;;;;;0.10;0.10;;;;;;;;;;5103415;28;20213;-75
2023/05/03 04:47:28;;;;;;;0.10;0.10;;;;;;;;;;5108527;28;20237;-75
2023/05/03 04:49:54;;;;;;;0.10;0.10;;;;;;;;;;5103351;28;20230;-75
2023/05/03 04:52:22;;;;;;;0.10;0.10;;;;;;;;;;5108588;28;20259;-75
2023/05/03 04:54:48;;;;;;;0.10;0.10;;;;;;;;;;5103017;28;20274;-75
2023/05/03 04:57:15;;;;;;;0.13;0.13;;;;;;;;;;5108401;28;20244;-75
2023/05/03 04:59:41;;;;;;;0.20;0.20;;;;;;;;;;5103130;28;20207;-75
2023/05/03 05:02:08;;;;;;;0.20;0.20;;;;;;;;;;5109382;28;20241;-74
2023/05/03 05:04:34;;;;;;;0.10;0.10;;;;;;;;;;5106441;28;20206;-75
2023/05/03 05:07:00;;;;;;;0.10;0.10;;;;;;;;;;5111145;28;20306;-75
2023/05/03 05:09:29;;;;;;;0.10;0.10;;;;;;;;;;5107272;28;20276;-75
2023/05/03 05:11:56;;;;;;;0.10;0.10;;;;;;;;;;5110369;28;20252;-75
2023/05/03 05:14:22;;;;;;;0.10;0.10;;;;;;;;;;5108156;28;20280;-74
2023/05/03 05:16:49;;;;;;;0.10;0.10;;;;;;;;;;5109302;28;20238;-75
2023/05/03 05:19:15;;;;;;;0.10;0.10;;;;;;;;;;5108884;28;20390;-75
2023/05/03 05:21:42;;;;;;;0.10;0.10;;;;;;;;;;5108343;28;20271;-75
2023/05/03 05:24:08;;;;;;;0.10;0.10;;;;;;;;;;5109493;28;20261;-75
2023/05/03 05:26:36;;;;;;;0.10;0.10;;;;;;;;;;5106987;28;20300;-75
2023/05/03 05:29:02;;;;;;;0.73;0.73;;;;;;;;;;5110685;28;20272;-75
2023/05/03 05:31:29;;;;;;;0.10;0.10;;;;;;;;;;5106433;28;20238;-75
2023/05/03 05:33:55;;;;;;;0.17;0.17;;;;;;;;;;5111198;28;20277;-75
2023/05/03 05:36:21;;;;;;;0.10;0.10;;;;;;;;;;5105242;28;20304;-75
2023/05/03 05:38:48;;;;;;;0.10;0.10;;;;;;;;;;5111834;28;20251;-75
2023/05/03 05:41:14;;;;;;;0.10;0.10;;;;;;;;;;5104362;28;20241;-74
2023/05/03 05:43:42;;;;;;;17.20;7.40;;;;;;;;;;5112699;28;20272;-74
2023/05/03 05:46:08;;;;;;;0.10;0.10;;;;;;;;;;5103437;28;20264;-75
2023/05/03 05:48:34;;;;;;;0.10;0.10;;;;;;;;;;5113455;28;20262;-74
2023/05/03 05:51:01;;;;;;;0.10;0.10;;;;;;;;;;5102389;28;20263;-75
2023/05/03 05:53:27;;;;;;;0.10;0.10;;;;;;;;;;5114506;28;20204;-75
2023/05/03 05:55:54;;;;;;;0.10;0.10;;;;;;;;;;5101273;28;20313;-75
2023/05/03 05:58:20;;;;;;;0.10;0.10;;;;;;;;;;5115035;28;20300;-75
2023/05/03 06:00:48;;;;;;;0.10;0.10;;;;;;;;;;5099976;28;20238;-75
2023/05/03 06:03:14;;;;;;;0.20;0.20;;;;;;;;;;5116511;28;20476;-75
2023/05/03 06:05:41;;;;;;;0.20;0.20;;;;;;;;;;5099427;28;20240;-75
2023/05/03 06:08:08;;;;;;;0.10;0.10;;;;;;;;;;5117104;28;20417;-75
2023/05/03 06:10:34;;;;;;;0.10;0.10;;;;;;;;;;5098297;28;20272;-74
2023/05/03 06:13:01;;;;;;;15.63;8.87;;;;;;;;;;5117798;28;20218;-74
2023/05/03 06:15:27;;;;;;;0.10;0.10;;;;;;;;;;5097662;28;20522;-74
2023/05/03 06:17:55;;;;;;;1.30;1.03;;;;;;;;;;5118272;28;20282;-74
2023/05/03 06:20:23;;;;;;;0.10;0.10;;;;;;;;;;5096490;28;20202;-75
2023/05/03 06:22:49;;;;;;;0.10;0.10;;;;;;;;;;5119206;28;20515;-74
2023/05/03 06:25:16;;;;;;;0.10;0.10;;;;;;;;;;5095949;28;20203;-75
2023/05/03 06:27:42;;;;;;;0.20;0.20;;;;;;;;;;5119629;28;20269;-75
2023/05/03 06:30:10;;;;;;;0.10;0.10;;;;;;;;;;5095551;28;20248;-75
2023/05/03 06:32:37;;;;;;;0.10;0.10;;;;;;;;;;5120043;28;20221;-74
2023/05/03 06:35:06;;;;;;;0.10;0.10;;;;;;;;;;5104801;28;20230;-74
2023/05/03 06:37:32;;;;;;;0.10;0.10;;;;;;;;;;5110130;28;20562;-75
2023/05/03 06:39:59;;;;;;;0.20;0.20;;;;;;;;;;5104652;28;20205;-75
2023/05/03 06:42:26;;;;;;;0.20;0.20;;;;;;;;;;5110186;28;20513;-75
2023/05/03 06:44:52;;;;;;;0.30;0.30;;;;;;;;;;5104931;28;20487;-75
2023/05/03 06:47:20;;;;;;;0.10;0.10;;;;;;;;;;5110013;28;20242;-74
2023/05/03 06:49:46;;;;;;;0.20;0.20;;;;;;;;;;5104515;28;20205;-75
2023/05/03 06:52:15;;;;;;;0.10;0.10;;;;;;;;;;5109926;28;20238;-75
2023/05/03 06:54:41;;;;;;;0.10;0.10;;;;;;;;;;5104304;28;20420;-75
2023/05/03 06:57:09;;;;;;;0.10;0.10;;;;;;;;;;5109879;28;20253;-74
2023/05/03 06:59:35;;;;;;;0.10;0.10;;;;;;;;;;5104291;28;20248;-75
2023/05/03 07:02:02;;;;;;;0.10;0.10;;;;;;;;;;5108884;28;20304;-74
2023/05/03 07:04:29;;;;;;;0.10;0.10;;;;;;;;;;5105350;28;20527;-75
2023/05/03 07:06:55;;;;;;;0.10;0.10;;;;;;;;;;5108197;28;20264;-75
2023/05/03 07:09:23;;;;;;;0.10;0.10;;;;;;;;;;5105726;28;20209;-75
2023/05/03 07:11:50;;;;;;;0.10;0.10;;;;;;;;;;5107162;28;20324;-75
2023/05/03 07:14:17;;;;;;;0.10;0.10;;;;;;;;;;5106429;28;20560;-74
2023/05/03 07:16:43;;;;;;;0.50;0.50;;;;;;;;;;5106318;28;20239;-74
2023/05/03 07:19:10;;;;;;;0.13;0.13;;;;;;;;;;5107280;28;20293;-74
2023/05/03 07:21:36;;;;;;;0.10;0.10;;;;;;;;;;5105445;28;20441;-74
2023/05/03 07:24:03;;;;;;;0.10;0.10;;;;;;;;;;5107996;28;20201;-76
2023/05/03 07:26:31;;;;;;;0.10;0.10;;;;;;;;;;5104303;28;20245;-76
2023/05/03 07:28:57;;;;;;;0.10;0.10;;;;;;;;;;5108693;28;20274;-76
2023/05/03 07:31:24;;;;;;;0.97;0.97;;;;;;;;;;5103381;28;20242;-77
2023/05/03 07:33:51;;;;;;;0.10;0.10;;;;;;;;;;5110033;28;20373;-75
2023/05/03 07:36:17;;;;;;;0.10;0.10;;;;;;;;;;5102795;28;20513;-77
2023/05/03 07:38:43;;;;;;;0.10;0.10;;;;;;;;;;5110406;28;20226;-76
2023/05/03 07:41:10;;;;;;;0.10;0.10;;;;;;;;;;5101839;28;20299;-76
2023/05/03 07:43:38;;;;;;;0.10;0.10;;;;;;;;;;5111559;28;20394;-77
2023/05/03 07:46:04;;;;;;;0.10;0.10;;;;;;;;;;5101041;28;20254;-77
2023/05/03 07:48:30;;;;;;;0.10;0.10;;;;;;;;;;5111973;28;20270;-76
2023/05/03 07:50:57;;;;;;;0.10;0.10;;;;;;;;;;5100025;28;20272;-77
2023/05/03 07:53:23;;;;;;;0.10;0.10;;;;;;;;;;5113167;28;20210;-77
2023/05/03 07:55:53;;;;;;;0.10;0.10;;;;;;;;;;5098746;28;20238;-76
2023/05/03 07:58:19;;;;;;;0.10;0.10;;;;;;;;;;5113632;28;20232;-77
2023/05/03 08:00:47;;;;;;;0.10;0.10;;;;;;;;;;5098409;28;20640;-77
2023/05/03 08:03:14;;;;;;;0.10;0.10;;;;;;;;;;5114352;28;20263;-76
2023/05/03 08:05:40;;;;;;;0.10;0.10;;;;;;;;;;5097705;28;20481;-76
2023/05/03 08:08:07;;;;;;;0.10;0.10;;;;;;;;;;5115003;28;20242;-77
2023/05/03 08:10:36;;;;;;;0.10;0.10;;;;;;;;;;5096766;28;20237;-77
2023/05/03 08:13:03;;;;;;;0.10;0.10;;;;;;;;;;5115438;28;20210;-76
2023/05/03 08:15:29;;;;;;;0.10;0.10;;;;;;;;;;5096150;28;20265;-76
2023/05/03 08:17:57;;;;;;;0.10;0.10;;;;;;;;;;5116364;28;20198;-77
2023/05/03 08:20:26;;;;;;;0.43;0.43;;;;;;;;;;5095445;28;20257;-77
2023/05/03 08:22:53;;;;;;;0.10;0.10;;;;;;;;;;5116762;28;20202;-77
2023/05/03 08:25:19;;;;;;;0.10;0.10;;;;;;;;;;5094879;28;20439;-77
2023/05/03 08:27:46;;;;;;;0.10;0.10;;;;;;;;;;5117864;28;20190;-77
2023/05/03 08:30:12;;;;;;;0.10;0.10;;;;;;;;;;5093896;28;20231;-77
2023/05/03 08:32:38;;;;;;;0.20;0.20;;;;;;;;;;5118870;28;20461;-76
2023/05/03 08:35:07;;;;;;;0.10;0.10;;;;;;;;;;5103659;28;20204;-77
2023/05/03 08:37:37;;;;;;;0.10;0.10;;;;;;;;;;5093505;28;20237;-78
2023/05/03 08:40:05;;;;;;;0.10;0.10;;;;;;;;;;5107432;28;20285;-77
2023/05/03 08:42:32;;;;;;;0.10;0.10;;;;;;;;;;5112757;28;20246;-77
2023/05/03 08:44:59;;;;;;;0.10;0.10;;;;;;;;;;5107241;28;20231;-77
2023/05/03 08:47:26;;;;;;;0.10;0.10;;;;;;;;;;5112512;28;20297;-77
2023/05/03 08:49:53;;;;;;;0.10;0.10;;;;;;;;;;5107294;28;20203;-77
2023/05/03 08:52:22;;;;;;;0.10;0.10;;;;;;;;;;5112598;28;20422;-77
2023/05/03 08:54:49;;;;;;;0.10;0.10;;;;;;;;;;5106869;28;20209;-77
2023/05/03 08:57:16;;;;;;;0.10;0.10;;;;;;;;;;5112372;28;20268;-77
2023/05/03 08:59:46;;;;;;;0.10;0.10;;;;;;;;;;5106771;28;20230;-77
2023/05/03 09:02:14;;;;;;;0.10;0.10;;;;;;;;;;5112346;28;20257;-77
2023/05/03 09:04:40;;;;;;;0.10;0.10;;;;;;;;;;5106623;28;20402;-77
2023/05/03 09:07:07;;;;;;;0.10;0.10;;;;;;;;;;5112104;28;20239;-74
2023/05/03 09:09:35;;;;;;;0.10;0.10;;;;;;;;;;5106592;28;20201;-74
2023/05/03 09:12:01;;;;;;;0.10;0.10;;;;;;;;;;5111363;28;20244;-74
2023/05/03 09:14:28;;;;;;;0.10;0.10;;;;;;;;;;5107473;28;20452;-74
2023/05/03 09:16:54;;;;;;;0.10;0.10;;;;;;;;;;5110298;28;20303;-74
2023/05/03 09:19:21;;;;;;;0.10;0.10;;;;;;;;;;5108334;28;20530;-74
2023/05/03 09:21:47;;;;;;;0.10;0.10;;;;;;;;;;5109288;28;20279;-74
2023/05/03 09:24:14;;;;;;;0.10;0.10;;;;;;;;;;5109298;28;20386;-74
2023/05/03 09:26:42;;;;;;;0.10;0.10;;;;;;;;;;5108324;28;20287;-74
2023/05/03 09:29:09;;;;;;;0.10;0.10;;;;;;;;;;5109941;28;20200;-75
2023/05/03 09:31:36;;;;;;;0.10;0.10;;;;;;;;;;5107565;28;20303;-75
2023/05/03 09:34:20;;;;;;;0.10;0.10;;;;;;;;;;5110495;28;20205;-75
2023/05/03 09:36:47;;;;;;;0.10;0.10;;;;;;;;;;5108424;28;20300;-74
2023/05/03 09:39:16;;;;;;;0.10;0.10;;;;;;;;;;5109084;28;20229;-75
2023/05/03 09:41:43;;;;;;;0.10;0.10;;;;;;;;;;5108219;28;20256;-75
2023/05/03 09:44:10;;;;;;;0.10;0.10;;;;;;;;;;5109279;28;20485;-75
2023/05/03 09:46:37;;;;;;;0.10;0.10;;;;;;;;;;5107201;28;20238;-74
2023/05/03 09:49:03;;;;;;;0.10;0.10;;;;;;;;;;5109362;28;20209;-76
2023/05/03 09:51:30;;;;;;;0.10;0.10;;;;;;;;;;5105930;28;20259;-75
2023/05/03 09:53:58;;;;;;;0.10;0.10;;;;;;;;;;5110501;28;20245;-73
2023/05/03 09:56:25;;;;;;;0.10;0.10;;;;;;;;;;5105523;28;20264;-74
2023/05/03 09:58:53;;;;;;;0.30;0.30;;;;;;;;;;5111156;28;20231;-77
2023/05/03 10:01:21;;;;;;;0.10;0.10;;;;;;;;;;5104653;28;20251;-77
2023/05/03 10:03:49;;;;;;;0.00;0.00;;;;;;;;;;5111938;28;20467;-77
2023/05/03 10:06:19;;;;;;;0.10;0.10;;;;;;;;;;5104082;28;20244;-77
2023/05/03 10:08:48;;;;;;;0.00;0.00;;;;;;;;;;5111640;28;20549;-77
2023/05/03 10:11:16;;;;;;;0.00;0.00;;;;;;;;;;5103986;28;20262;-77
2023/05/03 10:13:43;;;;;;;0.10;0.10;;;;;;;;;;5111896;28;20272;-77
2023/05/03 10:16:12;;;;;;;0.10;0.10;;;;;;;;;;5103121;28;20486;-77
2023/05/03 10:18:43;;;;;;;1.70;1.70;;;;;;;;;;5112290;28;20262;-76
2023/05/03 10:21:14;;;;;;;0.10;0.10;;;;;;;;;;5103177;28;20546;-77
2023/05/03 10:23:55;;;;;;;0.10;0.10;;;;;;;;;;5112016;28;20275;-76
2023/05/03 10:26:23;;;;;;;0.10;0.10;;;;;;;;;;5104294;28;20459;-77
2023/05/03 10:28:50;;;;;;;0.10;0.10;;;;;;;;;;5111117;28;20208;-77
2023/05/03 10:31:35;;;;;;;0.13;0.13;;;;;;;;;;5103691;28;20448;-76
2023/05/03 10:34:19;;;;;;;0.10;0.10;;;;;;;;;;5109277;28;20242;-77
2023/05/03 10:36:46;;;;;;;0.10;0.10;;;;;;;;;;5107204;28;20254;-76
2023/05/03 10:39:14;;;;;;;0.20;0.20;;;;;;;;;;5107584;28;20284;-77
2023/05/03 10:41:40;;;;;;;0.10;0.10;;;;;;;;;;5106533;28;20260;-77
2023/05/03 10:44:25;;;;;;;0.10;0.10;;;;;;;;;;5108317;28;20276;-77
2023/05/03 10:46:53;;;;;;;0.10;0.10;;;;;;;;;;5108011;28;20243;-77
2023/05/03 10:49:21;;;;;;;0.10;0.10;;;;;;;;;;5106637;28;20276;-76
2023/05/03 10:51:48;;;;;;;0.20;0.20;;;;;;;;;;5107565;28;20244;-72
2023/05/03 10:54:15;;;;;;;0.17;0.17;;;;;;;;;;5107437;28;20271;-75
2023/05/03 10:56:52;;;;;;;0.00;0.00;;;;;;;;;;5106470;28;20310;-75
2023/05/03 10:59:18;;;;;;;0.10;0.10;;;;;;;;;;5105812;28;20228;-75
2023/05/03 11:01:46;;;;;;;0.10;0.10;;;;;;;;;;5106904;28;20300;-75
2023/05/03 11:04:13;;;;;;;0.10;0.10;;;;;;;;;;5107230;28;20273;-75
2023/05/03 11:06:41;;;;;;;0.10;0.10;;;;;;;;;;5106078;28;20237;-76
2023/05/03 11:09:09;;;;;;;0.45;0.45;;;;;;;;;;5108212;28;20506;-75
2023/05/03 11:11:35;;;;;;;0.03;0.03;;;;;;;;;;5105384;28;20239;-76
2023/05/03 11:14:02;;;;;;;0.10;0.10;;;;;;;;;;5108466;28;20266;-75
2023/05/03 11:16:29;;;;;;;0.10;0.10;;;;;;;;;;5104494;28;20246;-75
2023/05/03 11:18:56;;;;;;;0.00;0.00;;;;;;;;;;5109032;28;20202;-77
2023/05/03 11:21:23;;;;;;;0.10;0.10;;;;;;;;;;5103580;28;20242;-77
2023/05/03 11:23:50;;;;;;;0.10;0.10;;;;;;;;;;5110215;28;20237;-76
2023/05/03 11:26:18;;;;;;;0.10;0.10;;;;;;;;;;5102878;28;20309;-77
2023/05/03 11:28:44;;;;;;;0.00;0.00;;;;;;;;;;5110476;28;20210;-77
2023/05/03 11:31:12;;;;;;;0.10;0.10;;;;;;;;;;5101956;28;20247;-76
2023/05/03 11:33:39;;;;;;;2.40;1.50;;;;;;;;;;5111508;28;20206;-76
2023/05/03 11:36:07;;;;;;;0.03;0.03;;;;;;;;;;5101258;28;20550;-76
2023/05/03 11:38:33;;;;;;;0.10;0.10;;;;;;;;;;5111601;28;20528;-76
2023/05/03 11:41:09;;;;;;;0.10;0.10;;;;;;;;;;5100320;28;20289;-76
2023/05/03 11:43:40;;;;;;;0.10;0.10;;;;;;;;;;5111536;28;20192;-76
2023/05/03 11:46:07;;;;;;;0.10;0.10;;;;;;;;;;5101253;28;20241;-77
2023/05/03 11:48:33;;;;;;;0.10;0.10;;;;;;;;;;5111857;28;20204;-76
2023/05/03 11:51:06;;;;;;;0.10;0.10;;;;;;;;;;5100219;28;20318;-76
2023/05/03 11:53:33;;;;;;;0.03;0.03;;;;;;;;;;5112034;28;20434;-76
2023/05/03 11:56:00;;;;;;;0.10;0.10;;;;;;;;;;5099795;28;20575;-76
2023/05/03 11:58:27;;;;;;;0.10;0.10;;;;;;;;;;5112947;28;20415;-76
2023/05/03 12:00:54;;;;;;;0.10;0.10;;;;;;;;;;5098986;28;20272;-77
2023/05/03 12:03:21;;;;;;;0.10;0.10;;;;;;;;;;5113707;28;20213;-77
2023/05/03 12:05:47;;;;;;;0.10;0.10;;;;;;;;;;5098500;28;20533;-77
2023/05/03 12:08:14;;;;;;;0.00;0.00;;;;;;;;;;5114031;28;20283;-77
2023/05/03 12:10:41;;;;;;;0.00;0.00;;;;;;;;;;5098091;28;20241;-77
2023/05/03 12:13:08;;;;;;;0.00;0.00;;;;;;;;;;5119372;28;20198;-77
2023/05/03 12:15:36;;;;;;;0.10;0.10;;;;;;;;;;5100871;28;20299;-77
2023/05/03 12:18:05;;;;;;;0.10;0.10;;;;;;;;;;5119597;28;20221;-77
2023/05/03 12:20:31;;;;;;;0.10;0.10;;;;;;;;;;5100294;28;20303;-77
2023/05/03 12:23:01;;;;;;;0.10;0.10;;;;;;;;;;5120417;28;20268;-78
2023/05/03 12:25:27;;;;;;;0.10;0.10;;;;;;;;;;5099971;28;20253;-76
2023/05/03 12:27:54;;;;;;;0.10;0.10;;;;;;;;;;5120479;28;20198;-76
2023/05/03 12:30:22;;;;;;;0.00;0.00;;;;;;;;;;5098543;28;20210;-76
2023/05/03 12:32:48;;;;;;;0.08;0.08;;;;;;;;;;5121616;28;20264;-76
2023/05/03 12:35:15;;;;;;;0.10;0.10;;;;;;;;;;5097944;28;20209;-76
2023/05/03 12:37:41;;;;;;;0.10;0.10;;;;;;;;;;5122134;28;20217;-76
2023/05/03 12:40:08;;;;;;;0.00;0.00;;;;;;;;;;5103762;28;20255;-76
2023/05/03 12:42:34;;;;;;;0.00;0.00;;;;;;;;;;5122986;28;20224;-76
2023/05/03 12:45:01;;;;;;;0.10;0.10;;;;;;;;;;5107103;28;20327;-76
2023/05/03 12:47:29;;;;;;;0.00;0.00;;;;;;;;;;5112487;28;20245;-76
2023/05/03 12:49:55;;;;;;;0.05;0.05;;;;;;;;;;5106959;28;20205;-76
2023/05/03 12:52:22;;;;;;;0.10;0.10;;;;;;;;;;5112518;28;20236;-76
2023/05/03 12:54:48;;;;;;;0.00;0.00;;;;;;;;;;5106691;28;20201;-76
2023/05/03 12:57:14;;;;;;;0.45;0.45;;;;;;;;;;5112605;28;20247;-76
2023/05/03 12:59:41;;;;;;;0.08;0.08;;;;;;;;;;5106645;28;20272;-76
2023/05/03 13:02:08;;;;;;;0.10;0.10;;;;;;;;;;5111900;28;20247;-76
2023/05/03 13:04:36;;;;;;;0.00;0.00;;;;;;;;;;5106985;28;20210;-76
2023/05/03 13:07:02;;;;;;;0.00;0.00;;;;;;;;;;5111158;28;20236;-76
2023/05/03 13:09:29;;;;;;;0.00;0.00;;;;;;;;;;5107317;28;20327;-76
2023/05/03 13:11:57;;;;;;;0.10;0.10;;;;;;;;;;5110473;28;20564;-76
2023/05/03 13:14:23;;;;;;;0.00;0.00;;;;;;;;;;5108106;28;20410;-76
2023/05/03 13:16:50;;;;;;;0.00;0.00;;;;;;;;;;5109606;28;20316;-72
2023/05/03 13:19:16;;;;;;;0.00;0.00;;;;;;;;;;5108684;28;20271;-75
2023/05/03 13:21:46;;;;;;;0.10;0.10;;;;;;;;;;5108459;28;20310;-75
2023/05/03 13:24:12;;;;;;;0.08;0.08;;;;;;;;;;5108506;28;20452;-72
2023/05/03 13:26:39;;;;;;;0.00;0.00;;;;;;;;;;5108657;28;20499;-72
2023/05/03 13:29:05;;;;;;;0.00;0.00;;;;;;;;;;5110222;28;20238;-72
2023/05/03 13:31:31;;;;;;;0.00;0.00;;;;;;;;;;5107164;28;20242;-72
2023/05/03 13:33:58;;;;;;;0.10;0.10;;;;;;;;;;5111035;28;20272;-70
2023/05/03 13:36:25;;;;;;;0.10;0.10;;;;;;;;;;5105707;28;20246;-75
2023/05/03 13:38:53;;;;;;;0.00;0.00;;;;;;;;;;5111602;28;20251;-75
2023/05/03 13:41:20;;;;;;;0.03;0.03;;;;;;;;;;5105065;28;20305;-75
2023/05/03 13:43:47;;;;;;;0.10;0.10;;;;;;;;;;5112337;28;20212;-74
2023/05/03 13:46:13;;;;;;;0.10;0.10;;;;;;;;;;5104304;28;20302;-74
2023/05/03 13:48:40;;;;;;;0.10;0.10;;;;;;;;;;5112902;28;20212;-74
2023/05/03 13:51:07;;;;;;;0.00;0.00;;;;;;;;;;5103423;28;20439;-74
2023/05/03 13:53:34;;;;;;;0.10;0.10;;;;;;;;;;5113587;28;20206;-74
2023/05/03 13:56:01;;;;;;;0.10;0.10;;;;;;;;;;5102470;28;20239;-74
2023/05/03 13:58:28;;;;;;;0.08;0.08;;;;;;;;;;5114676;28;20253;-74
2023/05/03 14:00:54;;;;;;;0.10;0.10;;;;;;;;;;5101420;28;20255;-73
2023/05/03 14:03:21;;;;;;;0.10;0.10;;;;;;;;;;5115225;28;20204;-74
2023/05/03 14:05:47;;;;;;;0.10;0.10;;;;;;;;;;5100604;28;20305;-73
2023/05/03 14:08:13;;;;;;;0.10;0.10;;;;;;;;;;5116027;28;20204;-73
2023/05/03 14:10:40;;;;;;;0.10;0.10;;;;;;;;;;5099552;28;20422;-73
2023/05/03 14:13:07;;;;;;;0.45;0.45;;;;;;;;;;5117221;28;20375;-73
2023/05/03 14:15:38;;;;;;;0.10;0.10;;;;;;;;;;5098545;28;20477;-73
2023/05/03 14:18:04;;;;;;;0.10;0.10;;;;;;;;;;5117076;28;20231;-73
2023/05/03 14:20:31;;;;;;;0.10;0.10;;;;;;;;;;5098071;28;20237;-73
2023/05/03 14:22:57;;;;;;;0.10;0.10;;;;;;;;;;5118334;28;20455;-73
2023/05/03 14:25:23;;;;;;;1.15;1.05;;;;;;;;;;5096908;28;20279;-73
2023/05/03 14:27:50;;;;;;;0.10;0.10;;;;;;;;;;5118805;28;20258;-72
2023/05/03 14:30:17;;;;;;;0.00;0.00;;;;;;;;;;5095832;28;20333;-74
2023/05/03 14:32:44;;;;;;;0.10;0.10;;;;;;;;;;5119962;28;20258;-73
2023/05/03 14:35:10;;;;;;;0.10;0.10;;;;;;;;;;5095038;28;20205;-74
2023/05/03 14:37:37;;;;;;;0.10;0.10;;;;;;;;;;5120305;28;20284;-74
2023/05/03 14:40:04;;;;;;;0.10;0.10;;;;;;;;;;5105067;28;20435;-73
2023/05/03 14:42:30;;;;;;;0.40;0.40;;;;;;;;;;5110358;28;20446;-73